sensor_id;sensor_type;location;lat;lon;timestamp;P1;durP1;ratioP1;P2;durP2;ratioP2
10096;SDS011;5087;42.662;23.466;2024-03-17T00:00:42;1.50;;;1.50;;
10096;SDS011;5087;42.662;23.466;2024-03-17T00:03:16;1.60;;;1.60;;
10096;SDS011;5087;42.662;23.466;2024-03-17T00:05:55;1.50;;;1.50;;
10096;SDS011;5087;42.662;23.466;2024-03-17T00:08:25;1.40;;;1.40;;
10096;SDS011;5087;42.662;23.466;2024-03-17T00:10:51;1.40;;;1.40;;
10096;SDS011;5087;42.662;23.466;2024-03-17T00:13:22;1.40;;;1.40;;
10096;SDS011;5087;42.662;23.466;2024-03-17T00:15:49;1.50;;;1.50;;
10096;SDS011;5087;42.662;23.466;2024-03-17T00:18:18;1.50;;;1.50;;
10096;SDS011;5087;42.662;23.466;2024-03-17T00:20:47;1.60;;;1.60;;
10096;SDS011;5087;42.662;23.466;2024-03-17T00:23:20;1.67;;;1.67;;
10096;SDS011;5087;42.662;23.466;2024-03-17T00:25:50;1.70;;;1.70;;
10096;SDS011;5087;42.662;23.466;2024-03-17T00:28:18;1.80;;;1.80;;
10096;SDS011;5087;42.662;23.466;2024-03-17T00:30:50;1.50;;;1.50;;
10096;SDS011;5087;42.662;23.466;2024-03-17T00:33:27;1.50;;;1.50;;
10096;SDS011;5087;42.662;23.466;2024-03-17T00:35:56;1.30;;;1.30;;
10096;SDS011;5087;42.662;23.466;2024-03-17T00:38:26;1.30;;;1.30;;
10096;SDS011;5087;42.662;23.466;2024-03-17T00:40:55;1.30;;;1.30;;
10096;SDS011;5087;42.662;23.466;2024-03-17T00:43:22;1.30;;;1.30;;
10096;SDS011;5087;42.662;23.466;2024-03-17T00:45:51;1.60;;;1.60;;
10096;SDS011;5087;42.662;23.466;2024-03-17T00:48:22;1.70;;;1.70;;
10096;SDS011;5087;42.662;23.466;2024-03-17T00:50:58;1.70;;;1.70;;
10096;SDS011;5087;42.662;23.466;2024-03-17T00:53:25;2.00;;;2.00;;
10096;SDS011;5087;42.662;23.466;2024-03-17T00:55:55;2.50;;;2.50;;
10096;SDS011;5087;42.662;23.466;2024-03-17T00:58:25;3.30;;;3.30;;
10096;SDS011;5087;42.662;23.466;2024-03-17T01:00:57;3.30;;;3.30;;
10096;SDS011;5087;42.662;23.466;2024-03-17T01:03:25;3.10;;;3.10;;
10096;SDS011;5087;42.662;23.466;2024-03-17T01:05:57;2.70;;;2.70;;
10096;SDS011;5087;42.662;23.466;2024-03-17T01:08:28;2.30;;;2.30;;
10096;SDS011;5087;42.662;23.466;2024-03-17T01:10:55;1.80;;;1.80;;
10096;SDS011;5087;42.662;23.466;2024-03-17T01:13:27;1.60;;;1.60;;
10096;SDS011;5087;42.662;23.466;2024-03-17T01:15:58;1.30;;;1.30;;
10096;SDS011;5087;42.662;23.466;2024-03-17T01:18:30;1.00;;;1.00;;
10096;SDS011;5087;42.662;23.466;2024-03-17T01:21:00;1.20;;;1.20;;
10096;SDS011;5087;42.662;23.466;2024-03-17T01:23:30;1.30;;;1.30;;
10096;SDS011;5087;42.662;23.466;2024-03-17T01:28:36;1.90;;;1.90;;
10096;SDS011;5087;42.662;23.466;2024-03-17T01:31:05;2.00;;;2.00;;
10096;SDS011;5087;42.662;23.466;2024-03-17T01:33:34;1.40;;;1.40;;
10096;SDS011;5087;42.662;23.466;2024-03-17T01:36:00;1.60;;;1.60;;
10096;SDS011;5087;42.662;23.466;2024-03-17T01:38:31;1.80;;;1.80;;
10096;SDS011;5087;42.662;23.466;2024-03-17T01:41:01;2.00;;;2.00;;
10096;SDS011;5087;42.662;23.466;2024-03-17T01:43:33;2.10;;;2.10;;
10096;SDS011;5087;42.662;23.466;2024-03-17T01:46:01;2.00;;;2.00;;
10096;SDS011;5087;42.662;23.466;2024-03-17T01:48:40;1.90;;;1.90;;
10096;SDS011;5087;42.662;23.466;2024-03-17T01:51:06;2.00;;;2.00;;
10096;SDS011;5087;42.662;23.466;2024-03-17T01:53:35;2.33;;;2.33;;
10096;SDS011;5087;42.662;23.466;2024-03-17T01:56:05;2.60;;;2.60;;
10096;SDS011;5087;42.662;23.466;2024-03-17T01:58:37;2.40;;;2.40;;
10096;SDS011;5087;42.662;23.466;2024-03-17T02:01:09;1.80;;;1.80;;
10096;SDS011;5087;42.662;23.466;2024-03-17T02:03:36;1.90;;;1.90;;
10096;SDS011;5087;42.662;23.466;2024-03-17T02:06:11;2.00;;;2.00;;
10096;SDS011;5087;42.662;23.466;2024-03-17T02:08:47;2.40;;;2.40;;
10096;SDS011;5087;42.662;23.466;2024-03-17T02:11:26;2.30;;;2.30;;
10096;SDS011;5087;42.662;23.466;2024-03-17T02:13:54;2.40;;;2.40;;
10096;SDS011;5087;42.662;23.466;2024-03-17T02:16:21;2.50;;;2.50;;
10096;SDS011;5087;42.662;23.466;2024-03-17T02:18:48;2.40;;;2.40;;
10096;SDS011;5087;42.662;23.466;2024-03-17T02:21:16;2.40;;;2.40;;
10096;SDS011;5087;42.662;23.466;2024-03-17T02:23:44;2.63;;;2.63;;
10096;SDS011;5087;42.662;23.466;2024-03-17T02:26:10;2.50;;;2.50;;
10096;SDS011;5087;42.662;23.466;2024-03-17T02:28:42;2.87;;;2.87;;
10096;SDS011;5087;42.662;23.466;2024-03-17T02:39:53;2.40;;;2.40;;
10096;SDS011;5087;42.662;23.466;2024-03-17T02:42:21;2.20;;;2.20;;
10096;SDS011;5087;42.662;23.466;2024-03-17T02:44:48;2.10;;;2.10;;
10096;SDS011;5087;42.662;23.466;2024-03-17T02:47:18;2.93;;;2.93;;
10096;SDS011;5087;42.662;23.466;2024-03-17T02:49:45;2.87;;;2.87;;
10096;SDS011;5087;42.662;23.466;2024-03-17T02:52:15;2.90;;;2.90;;
10096;SDS011;5087;42.662;23.466;2024-03-17T02:54:47;3.10;;;3.10;;
10096;SDS011;5087;42.662;23.466;2024-03-17T02:57:17;3.10;;;3.10;;
10096;SDS011;5087;42.662;23.466;2024-03-17T02:59:48;3.20;;;3.20;;
10096;SDS011;5087;42.662;23.466;2024-03-17T03:02:21;2.90;;;2.90;;
10096;SDS011;5087;42.662;23.466;2024-03-17T03:04:51;3.00;;;3.00;;
10096;SDS011;5087;42.662;23.466;2024-03-17T03:07:21;2.60;;;2.60;;
10096;SDS011;5087;42.662;23.466;2024-03-17T03:09:51;2.70;;;2.70;;
10096;SDS011;5087;42.662;23.466;2024-03-17T03:12:21;2.40;;;2.40;;
10096;SDS011;5087;42.662;23.466;2024-03-17T03:14:48;2.37;;;2.37;;
10096;SDS011;5087;42.662;23.466;2024-03-17T03:17:21;2.30;;;2.30;;
10096;SDS011;5087;42.662;23.466;2024-03-17T03:19:56;2.13;;;2.13;;
10096;SDS011;5087;42.662;23.466;2024-03-17T03:22:23;2.20;;;2.20;;
10096;SDS011;5087;42.662;23.466;2024-03-17T03:24:53;2.50;;;2.50;;
10096;SDS011;5087;42.662;23.466;2024-03-17T03:27:25;2.70;;;2.70;;
10096;SDS011;5087;42.662;23.466;2024-03-17T03:29:55;2.60;;;2.60;;
10096;SDS011;5087;42.662;23.466;2024-03-17T03:32:25;2.10;;;2.10;;
10096;SDS011;5087;42.662;23.466;2024-03-17T03:34:53;1.80;;;1.80;;
10096;SDS011;5087;42.662;23.466;2024-03-17T03:37:26;1.70;;;1.70;;
10096;SDS011;5087;42.662;23.466;2024-03-17T03:42:47;1.60;;;1.60;;
10096;SDS011;5087;42.662;23.466;2024-03-17T03:45:14;1.60;;;1.60;;
10096;SDS011;5087;42.662;23.466;2024-03-17T03:47:41;1.43;;;1.43;;
10096;SDS011;5087;42.662;23.466;2024-03-17T03:50:10;1.50;;;1.50;;
10096;SDS011;5087;42.662;23.466;2024-03-17T03:52:37;1.50;;;1.50;;
10096;SDS011;5087;42.662;23.466;2024-03-17T03:55:06;1.60;;;1.60;;
10096;SDS011;5087;42.662;23.466;2024-03-17T03:57:35;1.77;;;1.77;;
10096;SDS011;5087;42.662;23.466;2024-03-17T04:00:04;2.00;;;2.00;;
10096;SDS011;5087;42.662;23.466;2024-03-17T04:02:37;2.20;;;2.20;;
10096;SDS011;5087;42.662;23.466;2024-03-17T04:05:04;1.20;;;1.20;;
10096;SDS011;5087;42.662;23.466;2024-03-17T04:07:33;1.50;;;1.50;;
10096;SDS011;5087;42.662;23.466;2024-03-17T04:10:04;1.00;;;1.00;;
10096;SDS011;5087;42.662;23.466;2024-03-17T04:12:37;0.90;;;0.90;;
10096;SDS011;5087;42.662;23.466;2024-03-17T04:15:06;1.10;;;1.10;;
10096;SDS011;5087;42.662;23.466;2024-03-17T04:17:35;2.00;;;2.00;;
10096;SDS011;5087;42.662;23.466;2024-03-17T04:20:05;2.13;;;2.13;;
10096;SDS011;5087;42.662;23.466;2024-03-17T04:22:37;2.30;;;2.30;;
10096;SDS011;5087;42.662;23.466;2024-03-17T04:25:08;2.10;;;2.10;;
10096;SDS011;5087;42.662;23.466;2024-03-17T04:27:42;1.60;;;1.60;;
10096;SDS011;5087;42.662;23.466;2024-03-17T04:30:11;1.40;;;1.40;;
10096;SDS011;5087;42.662;23.466;2024-03-17T04:32:39;1.20;;;1.20;;
10096;SDS011;5087;42.662;23.466;2024-03-17T04:35:09;1.00;;;1.00;;
10096;SDS011;5087;42.662;23.466;2024-03-17T04:37:41;0.90;;;0.90;;
10096;SDS011;5087;42.662;23.466;2024-03-17T04:40:08;1.00;;;1.00;;
10096;SDS011;5087;42.662;23.466;2024-03-17T04:42:39;1.00;;;1.00;;
10096;SDS011;5087;42.662;23.466;2024-03-17T04:45:15;1.03;;;1.03;;
10096;SDS011;5087;42.662;23.466;2024-03-17T04:47:42;1.10;;;1.10;;
10096;SDS011;5087;42.662;23.466;2024-03-17T04:50:12;1.20;;;1.20;;
10096;SDS011;5087;42.662;23.466;2024-03-17T04:52:40;1.07;;;1.07;;
10096;SDS011;5087;42.662;23.466;2024-03-17T04:55:13;1.10;;;1.10;;
10096;SDS011;5087;42.662;23.466;2024-03-17T04:57:45;1.30;;;1.30;;
10096;SDS011;5087;42.662;23.466;2024-03-17T05:00:15;1.30;;;1.30;;
10096;SDS011;5087;42.662;23.466;2024-03-17T05:02:43;1.20;;;1.20;;
10096;SDS011;5087;42.662;23.466;2024-03-17T05:05:18;1.10;;;1.10;;
10096;SDS011;5087;42.662;23.466;2024-03-17T05:07:46;1.10;;;1.10;;
10096;SDS011;5087;42.662;23.466;2024-03-17T05:10:16;0.90;;;0.90;;
10096;SDS011;5087;42.662;23.466;2024-03-17T05:12:46;0.80;;;0.80;;
10096;SDS011;5087;42.662;23.466;2024-03-17T05:15:18;0.80;;;0.80;;
10096;SDS011;5087;42.662;23.466;2024-03-17T05:17:48;0.90;;;0.90;;
10096;SDS011;5087;42.662;23.466;2024-03-17T05:20:22;1.00;;;1.00;;
10096;SDS011;5087;42.662;23.466;2024-03-17T05:22:49;1.10;;;1.10;;
10096;SDS011;5087;42.662;23.466;2024-03-17T05:25:19;1.20;;;1.20;;
10096;SDS011;5087;42.662;23.466;2024-03-17T05:27:50;1.10;;;1.10;;
10096;SDS011;5087;42.662;23.466;2024-03-17T05:30:22;1.20;;;1.20;;
10096;SDS011;5087;42.662;23.466;2024-03-17T05:32:49;1.20;;;1.20;;
10096;SDS011;5087;42.662;23.466;2024-03-17T05:35:23;1.00;;;1.00;;
10096;SDS011;5087;42.662;23.466;2024-03-17T05:37:56;1.10;;;1.10;;
10096;SDS011;5087;42.662;23.466;2024-03-17T05:40:23;1.10;;;1.10;;
10096;SDS011;5087;42.662;23.466;2024-03-17T05:42:53;0.90;;;0.90;;
10096;SDS011;5087;42.662;23.466;2024-03-17T05:45:25;1.20;;;1.20;;
10096;SDS011;5087;42.662;23.466;2024-03-17T05:47:55;1.40;;;1.40;;
10096;SDS011;5087;42.662;23.466;2024-03-17T05:50:25;1.50;;;1.50;;
10096;SDS011;5087;42.662;23.466;2024-03-17T05:52:56;1.60;;;1.60;;
10096;SDS011;5087;42.662;23.466;2024-03-17T05:55:26;1.70;;;1.70;;
10096;SDS011;5087;42.662;23.466;2024-03-17T06:00:35;2.30;;;2.30;;
10096;SDS011;5087;42.662;23.466;2024-03-17T06:03:03;2.70;;;2.70;;
10096;SDS011;5087;42.662;23.466;2024-03-17T06:05:33;2.60;;;2.60;;
10096;SDS011;5087;42.662;23.466;2024-03-17T06:08:02;2.40;;;2.40;;
10096;SDS011;5087;42.662;23.466;2024-03-17T06:10:30;2.00;;;2.00;;
10096;SDS011;5087;42.662;23.466;2024-03-17T06:13:02;1.80;;;1.80;;
10096;SDS011;5087;42.662;23.466;2024-03-17T06:15:30;1.60;;;1.60;;
10096;SDS011;5087;42.662;23.466;2024-03-17T06:18:04;1.60;;;1.60;;
10096;SDS011;5087;42.662;23.466;2024-03-17T06:20:34;1.60;;;1.60;;
10096;SDS011;5087;42.662;23.466;2024-03-17T06:23:01;1.90;;;1.90;;
10096;SDS011;5087;42.662;23.466;2024-03-17T06:25:31;1.80;;;1.80;;
10096;SDS011;5087;42.662;23.466;2024-03-17T06:28:05;2.10;;;2.10;;
10096;SDS011;5087;42.662;23.466;2024-03-17T06:30:36;2.40;;;2.40;;
10096;SDS011;5087;42.662;23.466;2024-03-17T06:33:08;2.70;;;2.70;;
10096;SDS011;5087;42.662;23.466;2024-03-17T06:35:37;3.10;;;3.10;;
10096;SDS011;5087;42.662;23.466;2024-03-17T06:38:05;3.70;;;3.70;;
10096;SDS011;5087;42.662;23.466;2024-03-17T06:40:35;3.40;;;3.40;;
10096;SDS011;5087;42.662;23.466;2024-03-17T06:43:06;3.70;;;3.70;;
10096;SDS011;5087;42.662;23.466;2024-03-17T06:45:37;4.30;;;4.20;;
10096;SDS011;5087;42.662;23.466;2024-03-17T06:48:07;5.17;;;5.07;;
10096;SDS011;5087;42.662;23.466;2024-03-17T06:50:42;7.00;;;6.80;;
10096;SDS011;5087;42.662;23.466;2024-03-17T06:53:09;8.60;;;8.40;;
10096;SDS011;5087;42.662;23.466;2024-03-17T06:55:40;8.47;;;8.27;;
10096;SDS011;5087;42.662;23.466;2024-03-17T06:58:10;8.97;;;8.77;;
10096;SDS011;5087;42.662;23.466;2024-03-17T07:00:40;9.90;;;9.60;;
10096;SDS011;5087;42.662;23.466;2024-03-17T07:03:17;10.83;;;10.53;;
10096;SDS011;5087;42.662;23.466;2024-03-17T07:05:50;11.83;;;11.43;;
10096;SDS011;5087;42.662;23.466;2024-03-17T07:08:18;13.20;;;12.80;;
10096;SDS011;5087;42.662;23.466;2024-03-17T07:10:54;12.13;;;11.73;;
10096;SDS011;5087;42.662;23.466;2024-03-17T07:13:25;12.17;;;11.77;;
10096;SDS011;5087;42.662;23.466;2024-03-17T07:15:58;10.97;;;10.67;;
10096;SDS011;5087;42.662;23.466;2024-03-17T07:18:27;10.73;;;10.43;;
10096;SDS011;5087;42.662;23.466;2024-03-17T07:20:56;9.40;;;9.10;;
10096;SDS011;5087;42.662;23.466;2024-03-17T07:23:23;9.00;;;8.80;;
10096;SDS011;5087;42.662;23.466;2024-03-17T07:25:57;8.60;;;8.40;;
10096;SDS011;5087;42.662;23.466;2024-03-17T07:28:25;7.50;;;7.30;;
10096;SDS011;5087;42.662;23.466;2024-03-17T07:30:53;7.70;;;7.50;;
10096;SDS011;5087;42.662;23.466;2024-03-17T07:33:26;8.80;;;8.60;;
10096;SDS011;5087;42.662;23.466;2024-03-17T07:35:59;7.70;;;7.50;;
10096;SDS011;5087;42.662;23.466;2024-03-17T07:38:28;7.87;;;7.67;;
10096;SDS011;5087;42.662;23.466;2024-03-17T07:40:56;7.77;;;7.57;;
10096;SDS011;5087;42.662;23.466;2024-03-17T07:43:24;6.80;;;6.63;;
10096;SDS011;5087;42.662;23.466;2024-03-17T07:48:24;6.90;;;6.70;;
10096;SDS011;5087;42.662;23.466;2024-03-17T07:50:59;8.10;;;7.90;;
10096;SDS011;5087;42.662;23.466;2024-03-17T07:53:29;7.50;;;7.30;;
10096;SDS011;5087;42.662;23.466;2024-03-17T07:56:00;7.83;;;7.63;;
10096;SDS011;5087;42.662;23.466;2024-03-17T07:58:29;8.00;;;7.80;;
10096;SDS011;5087;42.662;23.466;2024-03-17T08:00:58;8.37;;;8.17;;
10096;SDS011;5087;42.662;23.466;2024-03-17T08:03:27;8.07;;;7.87;;
10096;SDS011;5087;42.662;23.466;2024-03-17T08:21:42;7.93;;;7.73;;
10096;SDS011;5087;42.662;23.466;2024-03-17T08:24:10;6.80;;;6.60;;
10096;SDS011;5087;42.662;23.466;2024-03-17T08:26:38;6.40;;;6.30;;
10096;SDS011;5087;42.662;23.466;2024-03-17T08:29:05;6.30;;;6.20;;
10096;SDS011;5087;42.662;23.466;2024-03-17T08:31:34;4.90;;;4.80;;
10096;SDS011;5087;42.662;23.466;2024-03-17T08:34:05;5.10;;;5.00;;
10096;SDS011;5087;42.662;23.466;2024-03-17T08:36:33;5.00;;;4.90;;
10096;SDS011;5087;42.662;23.466;2024-03-17T08:39:01;5.00;;;4.90;;
10096;SDS011;5087;42.662;23.466;2024-03-17T08:41:37;5.00;;;4.90;;
10096;SDS011;5087;42.662;23.466;2024-03-17T08:44:06;5.10;;;5.00;;
10096;SDS011;5087;42.662;23.466;2024-03-17T08:46:33;4.63;;;4.53;;
10096;SDS011;5087;42.662;23.466;2024-03-17T08:49:00;4.10;;;4.00;;
10096;SDS011;5087;42.662;23.466;2024-03-17T08:51:27;4.20;;;4.10;;
10096;SDS011;5087;42.662;23.466;2024-03-17T08:53:54;3.60;;;3.60;;
10096;SDS011;5087;42.662;23.466;2024-03-17T08:56:27;3.40;;;3.40;;
10096;SDS011;5087;42.662;23.466;2024-03-17T08:58:55;3.40;;;3.40;;
10096;SDS011;5087;42.662;23.466;2024-03-17T09:01:22;3.80;;;3.80;;
10096;SDS011;5087;42.662;23.466;2024-03-17T09:03:49;3.43;;;3.43;;
10096;SDS011;5087;42.662;23.466;2024-03-17T09:06:17;2.50;;;2.50;;
10096;SDS011;5087;42.662;23.466;2024-03-17T09:08:46;2.80;;;2.80;;
10096;SDS011;5087;42.662;23.466;2024-03-17T09:11:13;2.90;;;2.90;;
10096;SDS011;5087;42.662;23.466;2024-03-17T09:13:41;3.10;;;3.10;;
10096;SDS011;5087;42.662;23.466;2024-03-17T09:16:08;3.00;;;3.00;;
10096;SDS011;5087;42.662;23.466;2024-03-17T09:18:42;2.47;;;2.47;;
10096;SDS011;5087;42.662;23.466;2024-03-17T09:21:09;2.40;;;2.40;;
10096;SDS011;5087;42.662;23.466;2024-03-17T09:23:37;2.40;;;2.40;;
10096;SDS011;5087;42.662;23.466;2024-03-17T09:26:06;2.07;;;2.07;;
10096;SDS011;5087;42.662;23.466;2024-03-17T09:28:38;2.20;;;2.20;;
10096;SDS011;5087;42.662;23.466;2024-03-17T09:31:06;2.00;;;2.00;;
10096;SDS011;5087;42.662;23.466;2024-03-17T09:33:35;2.00;;;2.00;;
10096;SDS011;5087;42.662;23.466;2024-03-17T09:36:03;2.00;;;2.00;;
10096;SDS011;5087;42.662;23.466;2024-03-17T09:38:31;2.00;;;2.00;;
10096;SDS011;5087;42.662;23.466;2024-03-17T09:40:59;2.20;;;2.20;;
10096;SDS011;5087;42.662;23.466;2024-03-17T09:43:26;2.30;;;2.30;;
10096;SDS011;5087;42.662;23.466;2024-03-17T09:45:53;2.30;;;2.30;;
10096;SDS011;5087;42.662;23.466;2024-03-17T09:48:24;2.30;;;2.30;;
10096;SDS011;5087;42.662;23.466;2024-03-17T09:50:53;2.00;;;2.00;;
10096;SDS011;5087;42.662;23.466;2024-03-17T09:53:22;1.93;;;1.93;;
10096;SDS011;5087;42.662;23.466;2024-03-17T09:55:49;2.10;;;2.10;;
10096;SDS011;5087;42.662;23.466;2024-03-17T09:58:16;1.90;;;1.90;;
10096;SDS011;5087;42.662;23.466;2024-03-17T10:00:44;1.60;;;1.60;;
10096;SDS011;5087;42.662;23.466;2024-03-17T10:03:12;1.40;;;1.40;;
10096;SDS011;5087;42.662;23.466;2024-03-17T10:05:41;1.40;;;1.40;;
10096;SDS011;5087;42.662;23.466;2024-03-17T10:08:20;1.50;;;1.50;;
10096;SDS011;5087;42.662;23.466;2024-03-17T10:10:52;1.10;;;1.10;;
10096;SDS011;5087;42.662;23.466;2024-03-17T10:13:19;1.10;;;1.10;;
10096;SDS011;5087;42.662;23.466;2024-03-17T10:15:47;0.93;;;0.93;;
10096;SDS011;5087;42.662;23.466;2024-03-17T10:18:22;0.90;;;0.90;;
10096;SDS011;5087;42.662;23.466;2024-03-17T10:20:54;0.90;;;0.90;;
10096;SDS011;5087;42.662;23.466;2024-03-17T10:23:22;0.73;;;0.73;;
10096;SDS011;5087;42.662;23.466;2024-03-17T10:25:49;0.90;;;0.90;;
10096;SDS011;5087;42.662;23.466;2024-03-17T10:28:16;1.00;;;1.00;;
10096;SDS011;5087;42.662;23.466;2024-03-17T10:30:56;1.00;;;1.00;;
10096;SDS011;5087;42.662;23.466;2024-03-17T10:33:23;0.90;;;0.90;;
10096;SDS011;5087;42.662;23.466;2024-03-17T10:36:01;0.80;;;0.80;;
10096;SDS011;5087;42.662;23.466;2024-03-17T10:38:30;0.83;;;0.83;;
10096;SDS011;5087;42.662;23.466;2024-03-17T10:41:00;0.80;;;0.80;;
10096;SDS011;5087;42.662;23.466;2024-03-17T10:43:27;0.80;;;0.80;;
10096;SDS011;5087;42.662;23.466;2024-03-17T10:45:54;0.80;;;0.80;;
10096;SDS011;5087;42.662;23.466;2024-03-17T10:48:25;0.90;;;0.90;;
10096;SDS011;5087;42.662;23.466;2024-03-17T10:50:53;1.00;;;1.00;;
10096;SDS011;5087;42.662;23.466;2024-03-17T10:53:23;0.80;;;0.80;;
10096;SDS011;5087;42.662;23.466;2024-03-17T10:55:56;0.70;;;0.70;;
10096;SDS011;5087;42.662;23.466;2024-03-17T10:58:28;0.90;;;0.90;;
10096;SDS011;5087;42.662;23.466;2024-03-17T11:00:59;0.90;;;0.90;;
10096;SDS011;5087;42.662;23.466;2024-03-17T11:03:28;1.00;;;1.00;;
10096;SDS011;5087;42.662;23.466;2024-03-17T11:05:55;0.90;;;0.90;;
10096;SDS011;5087;42.662;23.466;2024-03-17T11:08:24;0.90;;;0.90;;
10096;SDS011;5087;42.662;23.466;2024-03-17T11:10:52;0.80;;;0.80;;
10096;SDS011;5087;42.662;23.466;2024-03-17T11:13:23;0.80;;;0.80;;
10096;SDS011;5087;42.662;23.466;2024-03-17T11:15:50;0.90;;;0.90;;
10096;SDS011;5087;42.662;23.466;2024-03-17T11:18:29;0.80;;;0.80;;
10096;SDS011;5087;42.662;23.466;2024-03-17T11:20:57;0.90;;;0.90;;
10096;SDS011;5087;42.662;23.466;2024-03-17T11:23:28;0.90;;;0.90;;
10096;SDS011;5087;42.662;23.466;2024-03-17T11:25:56;0.70;;;0.70;;
10096;SDS011;5087;42.662;23.466;2024-03-17T11:33:57;0.90;;;0.90;;
10096;SDS011;5087;42.662;23.466;2024-03-17T11:36:35;0.80;;;0.80;;
10096;SDS011;5087;42.662;23.466;2024-03-17T11:39:04;0.80;;;0.80;;
10096;SDS011;5087;42.662;23.466;2024-03-17T11:41:40;0.80;;;0.80;;
10096;SDS011;5087;42.662;23.466;2024-03-17T11:44:13;0.80;;;0.80;;
10096;SDS011;5087;42.662;23.466;2024-03-17T11:46:40;0.90;;;0.90;;
10096;SDS011;5087;42.662;23.466;2024-03-17T11:49:06;0.70;;;0.70;;
10096;SDS011;5087;42.662;23.466;2024-03-17T11:51:33;0.70;;;0.70;;
10096;SDS011;5087;42.662;23.466;2024-03-17T11:53:59;0.90;;;0.90;;
10096;SDS011;5087;42.662;23.466;2024-03-17T11:56:27;0.90;;;0.90;;
10096;SDS011;5087;42.662;23.466;2024-03-17T11:59:03;0.97;;;0.97;;
10096;SDS011;5087;42.662;23.466;2024-03-17T12:01:30;1.00;;;1.00;;
10096;SDS011;5087;42.662;23.466;2024-03-17T12:03:55;0.83;;;0.83;;
10096;SDS011;5087;42.662;23.466;2024-03-17T12:06:24;1.00;;;1.00;;
10096;SDS011;5087;42.662;23.466;2024-03-17T12:08:50;1.10;;;1.10;;
10096;SDS011;5087;42.662;23.466;2024-03-17T12:11:17;0.90;;;0.90;;
10096;SDS011;5087;42.662;23.466;2024-03-17T12:13:45;1.00;;;1.00;;
10096;SDS011;5087;42.662;23.466;2024-03-17T12:16:12;0.90;;;0.90;;
10096;SDS011;5087;42.662;23.466;2024-03-17T12:18:38;0.90;;;0.90;;
10096;SDS011;5087;42.662;23.466;2024-03-17T12:21:12;1.00;;;1.00;;
10096;SDS011;5087;42.662;23.466;2024-03-17T12:23:39;1.00;;;1.00;;
10096;SDS011;5087;42.662;23.466;2024-03-17T12:26:08;0.90;;;0.90;;
10096;SDS011;5087;42.662;23.466;2024-03-17T12:28:40;0.80;;;0.80;;
10096;SDS011;5087;42.662;23.466;2024-03-17T12:31:09;0.90;;;0.90;;
10096;SDS011;5087;42.662;23.466;2024-03-17T12:33:35;0.80;;;0.80;;
10096;SDS011;5087;42.662;23.466;2024-03-17T12:36:09;0.70;;;0.70;;
10096;SDS011;5087;42.662;23.466;2024-03-17T12:38:38;0.80;;;0.80;;
10096;SDS011;5087;42.662;23.466;2024-03-17T12:41:05;0.80;;;0.80;;
10096;SDS011;5087;42.662;23.466;2024-03-17T12:43:35;0.70;;;0.70;;
10096;SDS011;5087;42.662;23.466;2024-03-17T12:46:02;0.90;;;0.90;;
10096;SDS011;5087;42.662;23.466;2024-03-17T12:48:31;0.80;;;0.80;;
10096;SDS011;5087;42.662;23.466;2024-03-17T12:50:57;0.90;;;0.90;;
10096;SDS011;5087;42.662;23.466;2024-03-17T12:53:23;0.80;;;0.80;;
10096;SDS011;5087;42.662;23.466;2024-03-17T12:55:52;0.80;;;0.80;;
10096;SDS011;5087;42.662;23.466;2024-03-17T12:58:37;0.90;;;0.90;;
10096;SDS011;5087;42.662;23.466;2024-03-17T13:01:21;0.80;;;0.80;;
10096;SDS011;5087;42.662;23.466;2024-03-17T13:03:49;0.80;;;0.80;;
10096;SDS011;5087;42.662;23.466;2024-03-17T13:06:22;1.00;;;1.00;;
10096;SDS011;5087;42.662;23.466;2024-03-17T13:08:49;1.00;;;1.00;;
10096;SDS011;5087;42.662;23.466;2024-03-17T13:11:16;0.90;;;0.90;;
10096;SDS011;5087;42.662;23.466;2024-03-17T13:13:43;1.00;;;1.00;;
10096;SDS011;5087;42.662;23.466;2024-03-17T13:16:10;1.00;;;1.00;;
10096;SDS011;5087;42.662;23.466;2024-03-17T13:18:39;1.10;;;1.10;;
10096;SDS011;5087;42.662;23.466;2024-03-17T13:21:08;1.20;;;1.20;;
10096;SDS011;5087;42.662;23.466;2024-03-17T13:23:38;1.10;;;1.10;;
10096;SDS011;5087;42.662;23.466;2024-03-17T13:26:05;1.10;;;1.10;;
10096;SDS011;5087;42.662;23.466;2024-03-17T13:28:33;1.20;;;1.20;;
10096;SDS011;5087;42.662;23.466;2024-03-17T13:31:00;1.20;;;1.20;;
10096;SDS011;5087;42.662;23.466;2024-03-17T13:33:27;1.20;;;1.20;;
10096;SDS011;5087;42.662;23.466;2024-03-17T13:35:54;1.00;;;1.00;;
10096;SDS011;5087;42.662;23.466;2024-03-17T13:38:22;1.10;;;1.10;;
10096;SDS011;5087;42.662;23.466;2024-03-17T13:40:50;1.00;;;1.00;;
10096;SDS011;5087;42.662;23.466;2024-03-17T13:43:16;1.07;;;1.07;;
10096;SDS011;5087;42.662;23.466;2024-03-17T13:45:43;1.20;;;1.20;;
10096;SDS011;5087;42.662;23.466;2024-03-17T13:48:13;1.40;;;1.40;;
10096;SDS011;5087;42.662;23.466;2024-03-17T13:50:41;1.10;;;1.10;;
10096;SDS011;5087;42.662;23.466;2024-03-17T13:53:10;1.20;;;1.20;;
10096;SDS011;5087;42.662;23.466;2024-03-17T13:55:38;1.30;;;1.30;;
10096;SDS011;5087;42.662;23.466;2024-03-17T13:58:05;1.20;;;1.20;;
10096;SDS011;5087;42.662;23.466;2024-03-17T14:00:32;1.20;;;1.20;;
10096;SDS011;5087;42.662;23.466;2024-03-17T14:03:01;1.20;;;1.20;;
10096;SDS011;5087;42.662;23.466;2024-03-17T14:05:28;1.20;;;1.20;;
10096;SDS011;5087;42.662;23.466;2024-03-17T14:07:55;1.50;;;1.50;;
10096;SDS011;5087;42.662;23.466;2024-03-17T14:10:23;1.50;;;1.50;;
10096;SDS011;5087;42.662;23.466;2024-03-17T14:12:51;1.50;;;1.50;;
10096;SDS011;5087;42.662;23.466;2024-03-17T14:15:19;1.50;;;1.50;;
10096;SDS011;5087;42.662;23.466;2024-03-17T14:17:46;1.67;;;1.67;;
10096;SDS011;5087;42.662;23.466;2024-03-17T14:20:14;1.70;;;1.70;;
10096;SDS011;5087;42.662;23.466;2024-03-17T14:22:44;1.80;;;1.80;;
10096;SDS011;5087;42.662;23.466;2024-03-17T14:25:14;1.80;;;1.80;;
10096;SDS011;5087;42.662;23.466;2024-03-17T14:27:42;1.70;;;1.70;;
10096;SDS011;5087;42.662;23.466;2024-03-17T14:30:14;1.80;;;1.80;;
10096;SDS011;5087;42.662;23.466;2024-03-17T14:32:42;2.00;;;2.00;;
10096;SDS011;5087;42.662;23.466;2024-03-17T14:35:09;2.00;;;2.00;;
10096;SDS011;5087;42.662;23.466;2024-03-17T14:37:39;2.30;;;2.30;;
10096;SDS011;5087;42.662;23.466;2024-03-17T14:40:08;2.10;;;2.10;;
10096;SDS011;5087;42.662;23.466;2024-03-17T14:42:41;2.40;;;2.40;;
10096;SDS011;5087;42.662;23.466;2024-03-17T14:45:08;2.10;;;2.10;;
10096;SDS011;5087;42.662;23.466;2024-03-17T14:47:36;2.00;;;2.00;;
10096;SDS011;5087;42.662;23.466;2024-03-17T14:50:03;1.80;;;1.80;;
10096;SDS011;5087;42.662;23.466;2024-03-17T14:52:30;1.90;;;1.90;;
10096;SDS011;5087;42.662;23.466;2024-03-17T14:54:58;2.00;;;2.00;;
10096;SDS011;5087;42.662;23.466;2024-03-17T14:57:25;1.80;;;1.80;;
10096;SDS011;5087;42.662;23.466;2024-03-17T14:59:51;2.20;;;2.20;;
10096;SDS011;5087;42.662;23.466;2024-03-17T15:02:18;2.30;;;2.30;;
10096;SDS011;5087;42.662;23.466;2024-03-17T15:04:47;2.20;;;2.20;;
10096;SDS011;5087;42.662;23.466;2024-03-17T15:07:17;2.50;;;2.50;;
10096;SDS011;5087;42.662;23.466;2024-03-17T15:09:44;2.70;;;2.70;;
10096;SDS011;5087;42.662;23.466;2024-03-17T15:12:11;2.70;;;2.70;;
10096;SDS011;5087;42.662;23.466;2024-03-17T15:14:41;2.37;;;2.37;;
10096;SDS011;5087;42.662;23.466;2024-03-17T15:17:09;2.30;;;2.30;;
10096;SDS011;5087;42.662;23.466;2024-03-17T15:19:36;2.30;;;2.30;;
10096;SDS011;5087;42.662;23.466;2024-03-17T15:22:09;2.20;;;2.20;;
10096;SDS011;5087;42.662;23.466;2024-03-17T15:24:36;2.30;;;2.30;;
10096;SDS011;5087;42.662;23.466;2024-03-17T15:27:03;2.50;;;2.50;;
10096;SDS011;5087;42.662;23.466;2024-03-17T15:29:30;2.50;;;2.50;;
10096;SDS011;5087;42.662;23.466;2024-03-17T15:31:57;2.30;;;2.30;;
10096;SDS011;5087;42.662;23.466;2024-03-17T15:34:24;2.50;;;2.50;;
10096;SDS011;5087;42.662;23.466;2024-03-17T15:36:53;2.40;;;2.40;;
10096;SDS011;5087;42.662;23.466;2024-03-17T15:39:21;2.60;;;2.60;;
10096;SDS011;5087;42.662;23.466;2024-03-17T15:41:52;2.80;;;2.80;;